Merrimack River @ Goffs Falls, Nh

Merrimack River at Goffs Falls
 Total Drainage Area: 3,092 sq. miles 
 Drainage Area Controlled by Corps Dams: 1,619 sq. miles (52%) 
 Warning Flow/Stage: 36,400 cfs / 12.0 feet 
 Flood Flow/Stage: 46,200 cfs / 14.0 feet 
Date Time
(Eastern)
Stage
(ft)
Flow
(cfs)
CSM
(cfs / sq. mi.)
Jun-25 12:30 am 5.13 4,884 1.6
Jun-24 11:30 pm 5.08 4,750 1.5
Jun-24 10:30 pm 5.06 4,698 1.5
Jun-24 09:30 pm 4.99 4,517 1.5
Jun-24 08:30 pm 4.97 4,466 1.4
Jun-24 07:30 pm 4.97 4,466 1.4
Jun-24 06:30 pm 4.88 4,242 1.4
Jun-24 05:30 pm 4.78 4,003 1.3
Jun-24 04:30 pm 4.74 3,910 1.3
Jun-24 03:30 pm 4.59 3,575 1.2
Jun-24 02:30 pm 4.48 3,343 1.1
Jun-24 01:30 pm 4.53 3,447 1.1
Jun-24 12:30 pm 4.61 3,619 1.2
Jun-24 11:30 am 4.59 3,575 1.2
Jun-24 10:30 am 4.50 3,384 1.1
Jun-24 09:30 am 4.45 3,281 1.1
Jun-24 08:30 am 4.44 3,261 1.1
Jun-24 07:30 am 4.43 3,241 1.1
Jun-24 06:30 am 4.43 3,241 1.1
Jun-24 05:30 am 4.43 3,241 1.1
Jun-24 04:30 am 4.43 3,241 1.1
Jun-24 03:30 am 4.42 3,221 1.0
Jun-24 02:30 am 4.40 3,181 1.0
Jun-24 01:30 am 4.35 3,082 1.0
Jun-24 12:30 am 4.30 2,986 1.0
Report Generated June 25, 2024 01:04 am